createdAt,value
2023-03-24T00:01:26.238Z,98017.53
2023-03-24T00:03:54.574Z,98017.63
2023-03-24T00:06:23.689Z,97997.78
2023-03-24T00:08:53.459Z,98006.44
2023-03-24T00:11:23.297Z,98013.72
2023-03-24T00:13:51.950Z,98010.38
2023-03-24T00:16:22.172Z,98000.84
2023-03-24T00:18:54.442Z,97991.78
2023-03-24T00:21:24.741Z,98000.16
2023-03-24T00:23:54.626Z,97988.97
2023-03-24T00:26:27.199Z,97981.69
2023-03-24T00:28:57.323Z,97990.19
2023-03-24T00:31:26.354Z,97990.06
2023-03-24T00:33:55.079Z,97985.31
2023-03-24T00:36:25.925Z,97981.97
2023-03-24T00:38:55.086Z,97982.94
2023-03-24T00:41:27.218Z,98002.47
2023-03-24T00:43:58.837Z,98003.72
2023-03-24T00:46:30.889Z,98000.47
2023-03-24T00:49:03.712Z,97996.72
2023-03-24T00:51:34.370Z,97994.44
2023-03-24T00:54:03.353Z,97997.00
2023-03-24T00:56:33.720Z,98001.47
2023-03-24T00:59:03.698Z,97989.13
2023-03-24T01:01:35.717Z,97995.59
2023-03-24T01:04:06.151Z,97989.03
2023-03-24T01:06:36.767Z,97984.66
2023-03-24T01:09:06.212Z,97969.63
2023-03-24T01:11:40.356Z,97981.19
2023-03-24T01:14:11.094Z,97962.91
2023-03-24T01:16:40.953Z,97970.88
2023-03-24T01:19:09.943Z,97970.47
2023-03-24T01:21:39.425Z,97964.88
2023-03-24T01:24:08.478Z,97963.47
2023-03-24T01:26:37.449Z,97955.50
2023-03-24T01:29:06.278Z,97953.13
2023-03-24T01:31:36.815Z,97956.50
2023-03-24T01:34:05.357Z,97955.66
2023-03-24T01:36:33.785Z,97948.66
2023-03-24T01:39:02.521Z,97944.06
2023-03-24T01:41:35.205Z,97932.22
2023-03-24T01:44:23.876Z,97931.38
2023-03-24T01:46:53.716Z,97919.09
2023-03-24T01:49:23.070Z,97924.09
2023-03-24T01:51:59.016Z,97914.31
2023-03-24T01:54:32.452Z,97905.69
2023-03-24T01:57:05.518Z,97893.38
2023-03-24T01:59:40.186Z,97900.22
2023-03-24T02:02:13.973Z,97892.13
2023-03-24T02:04:45.178Z,97889.88
2023-03-24T02:07:18.947Z,97883.00
2023-03-24T02:09:48.537Z,97887.47
2023-03-24T02:12:16.921Z,97882.91
2023-03-24T02:14:45.513Z,97880.94
2023-03-24T02:17:41.193Z,97887.94
2023-03-24T02:20:32.009Z,97869.50
2023-03-24T02:23:46.045Z,97871.31
2023-03-24T02:26:47.471Z,97862.78
2023-03-24T02:30:04.326Z,97864.06
2023-03-24T02:33:03.298Z,97849.50
2023-03-24T02:36:04.227Z,97855.53
2023-03-24T02:39:02.033Z,97844.63
2023-03-24T02:41:52.057Z,97845.75
2023-03-24T02:44:31.811Z,97838.63
2023-03-24T02:47:07.226Z,97838.91
2023-03-24T02:49:44.279Z,97835.16
2023-03-24T02:52:18.591Z,97829.56
2023-03-24T02:54:51.081Z,97833.88
2023-03-24T02:57:26.008Z,97830.69
2023-03-24T02:59:59.271Z,97813.09
2023-03-24T03:02:32.175Z,97824.94
2023-03-24T03:05:06.585Z,97819.63
2023-03-24T03:07:38.303Z,97800.63
2023-03-24T03:10:14.286Z,97795.34
2023-03-24T03:12:49.410Z,97801.75
2023-03-24T03:15:24.661Z,97806.22
2023-03-24T03:17:59.206Z,97781.25
2023-03-24T03:20:35.018Z,97774.38
2023-03-24T03:23:06.672Z,97779.00
2023-03-24T03:25:42.338Z,97768.81
2023-03-24T03:28:15.227Z,97770.47
2023-03-24T03:30:47.030Z,97771.47
2023-03-24T03:33:24.858Z,97765.16
2023-03-24T03:35:58.182Z,97767.25
2023-03-24T03:38:36.378Z,97769.91
2023-03-24T03:41:06.542Z,97774.66
2023-03-24T03:43:37.847Z,97779.97
2023-03-24T03:46:07.600Z,97782.47
2023-03-24T03:48:36.594Z,97775.66
2023-03-24T03:53:43.730Z,97761.53
2023-03-24T03:56:12.157Z,97765.44
2023-03-24T03:58:42.687Z,97756.25
2023-03-24T04:01:15.736Z,97749.41
2023-03-24T04:04:07.647Z,97755.25
2023-03-24T04:06:43.041Z,97745.34
2023-03-24T04:09:30.270Z,97748.41
2023-03-24T04:12:19.256Z,97748.44
2023-03-24T04:15:05.053Z,97751.91
2023-03-24T04:17:52.135Z,97740.47
2023-03-24T04:20:24.615Z,97743.94
2023-03-24T04:23:09.735Z,97737.81
2023-03-24T04:25:50.053Z,97746.31
2023-03-24T04:28:27.375Z,97740.16
2023-03-24T04:31:07.426Z,97731.38
2023-03-24T04:33:43.047Z,97741.13
2023-03-24T04:36:18.248Z,97738.63
2023-03-24T04:38:50.664Z,97743.38
2023-03-24T04:41:21.366Z,97742.94
2023-03-24T04:43:51.214Z,97732.75
2023-03-24T04:46:21.755Z,97740.72
2023-03-24T04:48:50.358Z,97758.31
2023-03-24T04:51:20.744Z,97764.44
2023-03-24T04:53:49.780Z,97766.41
2023-03-24T04:56:32.464Z,97764.34
2023-03-24T04:59:00.522Z,97758.22
2023-03-24T05:01:31.136Z,97776.78
2023-03-24T05:04:00.170Z,97766.84
2023-03-24T05:06:28.543Z,97769.06
2023-03-24T05:08:58.989Z,97767.84
2023-03-24T05:11:27.334Z,97767.97
2023-03-24T05:13:56.143Z,97767.53
2023-03-24T05:16:24.311Z,97779.28
2023-03-24T05:18:54.264Z,97773.81
2023-03-24T05:21:22.329Z,97780.38
2023-03-24T05:23:51.688Z,97779.44
2023-03-24T05:26:19.836Z,97776.19
2023-03-24T05:28:49.644Z,97777.47
2023-03-24T05:31:18.324Z,97788.91
2023-03-24T05:33:46.602Z,97792.97
2023-03-24T05:36:16.380Z,97807.34
2023-03-24T05:38:44.652Z,97789.22
2023-03-24T05:41:12.959Z,97787.25
2023-03-24T05:43:41.082Z,97794.22
2023-03-24T05:46:10.124Z,97796.03
2023-03-24T05:48:39.880Z,97804.16
2023-03-24T05:51:08.626Z,97797.00
2023-03-24T05:53:38.835Z,97784.16
2023-03-24T05:56:11.958Z,97773.53
2023-03-24T05:58:40.569Z,97783.59
2023-03-24T06:01:10.424Z,97783.44
2023-03-24T06:03:40.683Z,97792.69
2023-03-24T06:06:14.944Z,97788.91
2023-03-24T06:08:46.326Z,97797.00
2023-03-24T06:11:15.836Z,97802.19
2023-03-24T06:13:44.045Z,97809.44
2023-03-24T06:16:12.433Z,97807.63
2023-03-24T06:18:42.936Z,97815.31
2023-03-24T06:21:11.363Z,97804.13
2023-03-24T06:23:39.524Z,97802.72
2023-03-24T06:26:14.113Z,97806.34
2023-03-24T06:28:43.387Z,97807.75
2023-03-24T06:31:15.264Z,97808.72
2023-03-24T06:33:43.905Z,97808.28
2023-03-24T06:36:13.839Z,97811.50
2023-03-24T06:38:43.157Z,97813.31
2023-03-24T06:41:13.782Z,97826.31
2023-03-24T06:43:42.007Z,97818.38
2023-03-24T06:46:11.288Z,97818.59
2023-03-24T06:48:39.783Z,97827.41
2023-03-24T06:51:08.748Z,97821.84
2023-03-24T06:53:37.900Z,97834.00
2023-03-24T06:56:06.869Z,97837.19
2023-03-24T06:58:43.895Z,97833.81
2023-03-24T07:01:12.919Z,97835.06
2023-03-24T07:06:11.357Z,97842.88
2023-03-24T07:08:40.352Z,97847.16
2023-03-24T07:11:12.667Z,97846.03
2023-03-24T07:13:42.090Z,97832.31
2023-03-24T07:16:11.595Z,97837.47
2023-03-24T07:18:41.245Z,97827.69
2023-03-24T07:21:09.995Z,97832.41
2023-03-24T07:23:39.983Z,97830.84
2023-03-24T07:26:08.929Z,97853.78
2023-03-24T07:28:37.098Z,97840.53
2023-03-24T07:31:10.968Z,97841.06
2023-03-24T07:33:39.638Z,97837.09
2023-03-24T07:36:09.033Z,97848.22
2023-03-24T07:38:37.522Z,97843.13
2023-03-24T07:41:05.896Z,97846.34
2023-03-24T07:43:34.095Z,97847.03
2023-03-24T07:46:02.346Z,97850.91
2023-03-24T07:48:32.138Z,97849.19
2023-03-24T07:51:00.143Z,97852.94
2023-03-24T07:53:28.646Z,97861.28
2023-03-24T07:55:56.943Z,97848.09
2023-03-24T07:58:25.223Z,97851.84
2023-03-24T08:00:53.461Z,97860.28
2023-03-24T08:03:28.365Z,97868.72
2023-03-24T08:05:58.229Z,97876.56
2023-03-24T08:08:26.887Z,97871.84
2023-03-24T08:10:55.179Z,97857.59
2023-03-24T08:13:23.490Z,97858.44
2023-03-24T08:15:51.683Z,97854.97
2023-03-24T08:18:21.038Z,97836.44
2023-03-24T08:20:51.448Z,97841.66
2023-03-24T08:23:21.968Z,97822.97
2023-03-24T08:25:50.885Z,97807.69
2023-03-24T08:28:19.338Z,97804.31
2023-03-24T08:30:47.962Z,97810.19
2023-03-24T08:33:17.810Z,97874.84
2023-03-24T08:35:46.931Z,97867.28
2023-03-24T08:38:18.807Z,97873.94
2023-03-24T08:40:49.116Z,97865.47
2023-03-24T08:43:17.678Z,97883.72
2023-03-24T08:45:46.842Z,97875.31
2023-03-24T08:48:15.304Z,97857.72
2023-03-24T08:50:44.286Z,97860.69
2023-03-24T08:53:17.034Z,97865.59
2023-03-24T08:55:45.724Z,97876.88
2023-03-24T08:58:17.114Z,97893.56
2023-03-24T09:00:46.549Z,97901.50
2023-03-24T09:03:21.256Z,97910.22
2023-03-24T09:05:50.497Z,97912.69
2023-03-24T09:08:21.219Z,97910.41
2023-03-24T09:10:50.182Z,97924.44
2023-03-24T09:13:21.575Z,97928.88
2023-03-24T09:15:50.747Z,97926.75
2023-03-24T09:18:20.333Z,97939.00
2023-03-24T09:20:48.938Z,97932.94
2023-03-24T09:23:17.433Z,97942.19
2023-03-24T09:25:45.842Z,97949.16
2023-03-24T09:28:15.189Z,97941.34
2023-03-24T09:30:45.663Z,97939.28
2023-03-24T09:33:13.972Z,97927.22
2023-03-24T09:35:43.107Z,97933.66
2023-03-24T09:38:12.514Z,97919.06
2023-03-24T09:40:41.712Z,97918.28
2023-03-24T09:43:17.492Z,97920.22
2023-03-24T09:45:53.385Z,97931.78
2023-03-24T09:48:31.253Z,97939.75
2023-03-24T09:51:04.134Z,97927.50
2023-03-24T09:53:39.492Z,97932.72
2023-03-24T09:56:14.766Z,97939.06
2023-03-24T09:58:46.092Z,97947.78
2023-03-24T10:01:18.112Z,97955.72
2023-03-24T10:03:47.425Z,97960.84
2023-03-24T10:06:26.215Z,97953.59
2023-03-24T10:09:06.336Z,97961.75
2023-03-24T10:11:40.738Z,97961.41
2023-03-24T10:14:24.005Z,97966.72
2023-03-24T10:17:01.458Z,97963.03
2023-03-24T10:19:41.935Z,97962.50
2023-03-24T10:22:18.541Z,97968.56
2023-03-24T10:24:52.286Z,97968.56
2023-03-24T10:27:27.820Z,97966.66
2023-03-24T10:30:02.572Z,97983.50
2023-03-24T10:32:38.083Z,97991.06
2023-03-24T10:35:10.730Z,97991.91
2023-03-24T10:37:39.183Z,97996.97
2023-03-24T10:40:18.222Z,97987.44
2023-03-24T10:42:48.927Z,97982.75
2023-03-24T10:45:25.744Z,98001.28
2023-03-24T10:47:58.675Z,98009.59
2023-03-24T10:50:28.577Z,98020.94
2023-03-24T10:52:59.735Z,98028.16
2023-03-24T10:55:32.850Z,98015.00
2023-03-24T10:58:02.189Z,98008.53
2023-03-24T11:00:32.502Z,98002.28
2023-03-24T11:03:06.371Z,98007.13
2023-03-24T11:05:37.484Z,98005.31
2023-03-24T11:08:28.788Z,98003.75
2023-03-24T11:10:57.243Z,98003.75
2023-03-24T11:13:31.277Z,98005.13
2023-03-24T11:16:08.554Z,98010.41
2023-03-24T11:18:55.926Z,98016.69
2023-03-24T11:21:24.734Z,98017.06
2023-03-24T11:23:53.854Z,98017.38
2023-03-24T11:26:24.044Z,98020.84
2023-03-24T11:28:54.833Z,98014.13
2023-03-24T11:31:25.799Z,98042.06
2023-03-24T11:34:02.935Z,98054.88
2023-03-24T11:36:49.080Z,98047.28
2023-03-24T11:39:25.812Z,98044.69
2023-03-24T11:42:18.616Z,98026.84
2023-03-24T11:44:50.769Z,98037.09
2023-03-24T11:47:24.814Z,98034.66
2023-03-24T11:50:03.769Z,98036.06
2023-03-24T11:52:36.267Z,98032.38
2023-03-24T11:55:06.409Z,98039.13
2023-03-24T11:57:47.316Z,98029.78
2023-03-24T12:00:23.370Z,98015.09
2023-03-24T12:03:11.033Z,98011.50
2023-03-24T12:05:44.109Z,98009.63
2023-03-24T12:08:29.021Z,98003.03
2023-03-24T12:11:18.125Z,97994.34
2023-03-24T12:13:50.837Z,98002.31
2023-03-24T12:16:37.810Z,97999.53
2023-03-24T12:19:36.224Z,97999.78
2023-03-24T12:22:21.353Z,97993.91
2023-03-24T12:25:09.656Z,97987.03
2023-03-24T12:27:48.671Z,97987.50
2023-03-24T12:30:26.702Z,97988.69
2023-03-24T12:33:03.159Z,97972.66
2023-03-24T12:35:57.221Z,97974.97
2023-03-24T12:38:47.728Z,97984.41
2023-03-24T12:41:45.543Z,97990.34
2023-03-24T12:45:05.172Z,97980.94
2023-03-24T12:48:04.445Z,97978.44
2023-03-24T12:50:45.195Z,97984.41
2023-03-24T12:56:36.448Z,97974.66
2023-03-24T12:59:08.245Z,97969.88
2023-03-24T13:01:43.104Z,97969.25
2023-03-24T13:04:17.432Z,97964.31
2023-03-24T13:06:50.119Z,97981.63
2023-03-24T13:09:33.473Z,97967.47
2023-03-24T13:12:08.202Z,97982.31
2023-03-24T13:14:48.466Z,97966.22
2023-03-24T13:17:23.344Z,97968.44
2023-03-24T13:19:54.498Z,97970.41
2023-03-24T13:22:26.321Z,97961.44
2023-03-24T13:24:57.741Z,97957.00
2023-03-24T13:27:31.200Z,97957.28
2023-03-24T13:30:31.518Z,97950.88
2023-03-24T13:33:05.163Z,97949.53
2023-03-24T13:35:53.559Z,97951.06
2023-03-24T13:38:31.588Z,97949.09
2023-03-24T13:41:05.983Z,97952.63
2023-03-24T13:43:35.794Z,97949.38
2023-03-24T13:46:07.749Z,97960.25
2023-03-24T13:48:39.896Z,97937.19
2023-03-24T13:51:18.734Z,97934.91
2023-03-24T13:53:54.045Z,97931.75
2023-03-24T13:56:33.222Z,97934.91
2023-03-24T13:59:20.374Z,97942.84
2023-03-24T14:02:18.956Z,97931.03
2023-03-24T14:04:53.272Z,97930.97
2023-03-24T14:07:33.511Z,97938.16
2023-03-24T14:10:03.306Z,97922.28
2023-03-24T14:12:53.900Z,97921.03
2023-03-24T14:15:23.343Z,97918.09
2023-03-24T14:17:56.705Z,97913.75
2023-03-24T14:20:36.603Z,97918.06
2023-03-24T14:23:05.691Z,97932.75
2023-03-24T14:25:36.999Z,97914.19
2023-03-24T14:28:38.798Z,97916.97
2023-03-24T14:31:20.085Z,97919.34
2023-03-24T14:34:03.356Z,97926.56
2023-03-24T14:36:35.297Z,97940.56
2023-03-24T14:39:26.956Z,97914.69
2023-03-24T14:41:57.920Z,97913.75
2023-03-24T14:44:55.057Z,97912.84
2023-03-24T14:47:27.769Z,97907.59
2023-03-24T14:49:59.550Z,97907.19
2023-03-24T14:52:33.688Z,97901.28
2023-03-24T14:55:07.393Z,97891.81
2023-03-24T14:57:41.230Z,97904.31
2023-03-24T15:00:20.108Z,97896.00
2023-03-24T15:02:51.282Z,97895.56
2023-03-24T15:05:25.137Z,97897.94
2023-03-24T15:08:14.225Z,97895.97
2023-03-24T15:10:50.924Z,97884.16
2023-03-24T15:13:38.551Z,97886.13
2023-03-24T15:16:19.989Z,97881.50
2023-03-24T15:19:00.515Z,97888.59
2023-03-24T15:21:34.873Z,97890.09
2023-03-24T15:24:05.102Z,97889.03
2023-03-24T15:26:33.782Z,97889.34
2023-03-24T15:29:06.286Z,97886.47
2023-03-24T15:31:39.231Z,97877.09
2023-03-24T15:34:26.997Z,97884.69
2023-03-24T15:36:56.978Z,97876.16
2023-03-24T15:39:30.270Z,97878.97
2023-03-24T15:41:58.373Z,97868.28
2023-03-24T15:44:29.757Z,97864.09
2023-03-24T15:47:01.864Z,97875.31
2023-03-24T15:49:34.730Z,97864.06
2023-03-24T15:52:07.014Z,97866.47
2023-03-24T15:54:40.892Z,97881.84
2023-03-24T15:57:17.651Z,97867.13
2023-03-24T15:59:49.232Z,97865.75
2023-03-24T16:02:27.680Z,97877.13
2023-03-24T16:05:10.948Z,97861.91
2023-03-24T16:07:43.273Z,97857.16
2023-03-24T16:10:32.687Z,97868.47
2023-03-24T16:13:14.934Z,97864.72
2023-03-24T16:15:45.701Z,97866.03
2023-03-24T16:18:19.194Z,97854.53
2023-03-24T16:20:49.101Z,97865.66
2023-03-24T16:23:18.462Z,97857.97
2023-03-24T16:25:47.266Z,97861.88
2023-03-24T16:28:20.281Z,97866.63
2023-03-24T16:30:56.001Z,97865.75
2023-03-24T16:33:25.845Z,97863.72
2023-03-24T16:35:55.322Z,97862.63
2023-03-24T16:38:23.743Z,97859.84
2023-03-24T16:40:53.736Z,97874.63
2023-03-24T16:43:24.511Z,97872.78
2023-03-24T16:45:53.317Z,97866.09
2023-03-24T16:48:21.931Z,97864.75
2023-03-24T16:50:53.665Z,97877.16
2023-03-24T16:53:21.886Z,97869.69
2023-03-24T16:55:50.571Z,97859.03
2023-03-24T16:58:19.074Z,97874.16
2023-03-24T17:00:49.478Z,97868.91
2023-03-24T17:03:18.613Z,97863.19
2023-03-24T17:05:51.257Z,97870.03
2023-03-24T17:08:21.034Z,97885.09
2023-03-24T17:10:51.859Z,97883.06
2023-03-24T17:13:22.339Z,97878.34
2023-03-24T17:15:51.255Z,97882.25
2023-03-24T17:18:22.115Z,97880.63
2023-03-24T17:20:50.800Z,97889.31
2023-03-24T17:23:22.099Z,97890.59
2023-03-24T17:25:50.797Z,97893.16
2023-03-24T17:28:19.329Z,97888.91
2023-03-24T17:30:47.997Z,97885.34
2023-03-24T17:33:16.548Z,97877.44
2023-03-24T17:35:47.045Z,97890.88
2023-03-24T17:38:17.625Z,97891.69
2023-03-24T17:40:48.709Z,97903.56
2023-03-24T17:43:17.105Z,97899.13
2023-03-24T17:45:45.236Z,97905.50
2023-03-24T17:48:13.229Z,97913.41
2023-03-24T17:50:42.129Z,97919.75
2023-03-24T17:53:13.793Z,97924.69
2023-03-24T17:55:42.037Z,97915.16
2023-03-24T17:58:14.938Z,97926.44
2023-03-24T18:00:43.599Z,97926.78
2023-03-24T18:03:12.773Z,97935.34
2023-03-24T18:05:42.494Z,97947.13
2023-03-24T18:08:11.785Z,97935.94
2023-03-24T18:10:40.998Z,97943.97
2023-03-24T18:13:12.904Z,97941.25
2023-03-24T18:15:44.155Z,97947.03
2023-03-24T18:18:12.890Z,97950.44
2023-03-24T18:20:41.463Z,97956.06
2023-03-24T18:23:09.648Z,97964.34
2023-03-24T18:25:38.036Z,97968.72
2023-03-24T18:28:06.821Z,97967.34
2023-03-24T18:30:35.432Z,97972.53
2023-03-24T18:33:07.890Z,97977.69
2023-03-24T18:35:36.757Z,97974.44
2023-03-24T18:38:04.993Z,97971.47
2023-03-24T18:40:34.243Z,97971.69
2023-03-24T18:43:04.149Z,97976.34
2023-03-24T18:45:32.293Z,97981.22
2023-03-24T18:48:00.688Z,97974.75
2023-03-24T18:50:30.437Z,97988.50
2023-03-24T18:52:59.828Z,97974.81
2023-03-24T18:55:30.323Z,97984.63
2023-03-24T18:57:58.654Z,97983.47
2023-03-24T19:00:29.051Z,97981.53
2023-03-24T19:02:59.193Z,97986.56
2023-03-24T19:05:29.735Z,97985.31
2023-03-24T19:08:08.393Z,97990.78
2023-03-24T19:10:37.708Z,97991.19
2023-03-24T19:13:07.705Z,97987.81
2023-03-24T19:15:38.073Z,97989.94
2023-03-24T19:18:06.875Z,98041.69
2023-03-24T19:20:37.981Z,98096.94
2023-03-24T19:23:08.414Z,98084.13
2023-03-24T19:25:36.732Z,98092.63
2023-03-24T19:28:05.429Z,98117.75
2023-03-24T19:30:35.205Z,98119.91
2023-03-24T19:33:03.372Z,98123.22
2023-03-24T19:35:31.930Z,98133.81
2023-03-24T19:38:02.090Z,98140.16
2023-03-24T19:40:32.815Z,98145.38
2023-03-24T19:43:01.359Z,98145.50
2023-03-24T19:45:30.539Z,98117.56
2023-03-24T19:48:02.454Z,98110.53
2023-03-24T19:50:30.901Z,98108.34
2023-03-24T19:52:59.419Z,98099.44
2023-03-24T19:55:28.960Z,98093.78
2023-03-24T19:57:59.712Z,98087.06
2023-03-24T20:00:28.311Z,98084.16
2023-03-24T20:02:56.450Z,98072.16
2023-03-24T20:05:25.515Z,98070.19
2023-03-24T20:07:55.645Z,98063.19
2023-03-24T20:10:23.965Z,98056.56
2023-03-24T20:12:52.771Z,98057.16
2023-03-24T20:15:23.527Z,98057.47
2023-03-24T20:17:52.757Z,98050.84
2023-03-24T20:20:21.238Z,98044.75
2023-03-24T20:22:49.963Z,98049.34
2023-03-24T20:25:19.699Z,98048.44
2023-03-24T20:27:48.458Z,98038.53
2023-03-24T20:30:18.809Z,98042.66
2023-03-24T20:32:49.383Z,98046.50
2023-03-24T20:35:17.945Z,98050.00
2023-03-24T20:37:46.505Z,98045.22
2023-03-24T20:40:14.570Z,98051.94
2023-03-24T20:42:42.893Z,98050.13
2023-03-24T20:45:13.064Z,98040.25
2023-03-24T20:47:42.569Z,98037.97
2023-03-24T20:50:13.464Z,98041.50
2023-03-24T20:52:41.962Z,98041.09
2023-03-24T20:55:14.724Z,98041.00
2023-03-24T20:57:44.357Z,98039.31
2023-03-24T21:00:14.911Z,98043.91
2023-03-24T21:02:43.755Z,98046.22
2023-03-24T21:05:13.725Z,98033.94
2023-03-24T21:07:44.039Z,98042.59
2023-03-24T21:10:14.659Z,98038.41
2023-03-24T21:12:52.923Z,98049.88
2023-03-24T21:15:24.972Z,98061.31
2023-03-24T21:17:53.877Z,98055.81
2023-03-24T21:20:27.000Z,98061.22
2023-03-24T21:22:56.138Z,98068.78
2023-03-24T21:25:26.854Z,98070.09
2023-03-24T21:27:55.833Z,98093.06
2023-03-24T21:30:25.310Z,98101.47
2023-03-24T21:32:55.768Z,98108.31
2023-03-24T21:35:26.306Z,98117.59
2023-03-24T21:37:54.833Z,98126.25
2023-03-24T21:40:25.602Z,98130.09
2023-03-24T21:42:54.589Z,98124.31
2023-03-24T21:45:24.282Z,98110.38
2023-03-24T21:47:56.071Z,98102.44
2023-03-24T21:50:25.935Z,98103.38
2023-03-24T21:52:55.762Z,98094.56
2023-03-24T21:55:26.989Z,98094.25
2023-03-24T21:57:57.020Z,98084.25
2023-03-24T22:00:29.991Z,98091.97
2023-03-24T22:02:58.507Z,98086.56
2023-03-24T22:05:29.251Z,98094.94
2023-03-24T22:07:57.706Z,98086.28
2023-03-24T22:10:30.410Z,98105.47
2023-03-24T22:12:59.380Z,98094.66
2023-03-24T22:15:27.808Z,98088.66
2023-03-24T22:17:56.495Z,98083.38
2023-03-24T22:20:28.272Z,98081.56
2023-03-24T22:22:58.929Z,98073.06
2023-03-24T22:25:28.332Z,98073.66
2023-03-24T22:27:57.102Z,98072.81
2023-03-24T22:30:25.297Z,98066.00
2023-03-24T22:32:53.743Z,98068.50
2023-03-24T22:35:23.428Z,98054.44
2023-03-24T22:37:53.459Z,98068.50
2023-03-24T22:40:23.270Z,98089.75
2023-03-24T22:42:51.362Z,98076.31
2023-03-24T22:45:19.635Z,98078.56
2023-03-24T22:47:48.105Z,98083.00
2023-03-24T22:50:16.369Z,98080.47
2023-03-24T22:52:44.610Z,98070.19
2023-03-24T22:55:13.002Z,98070.91
2023-03-24T22:57:42.733Z,98070.19
2023-03-24T23:00:12.158Z,98079.63
2023-03-24T23:02:40.707Z,98064.59
2023-03-24T23:05:09.398Z,98069.88
2023-03-24T23:07:38.231Z,98068.44
2023-03-24T23:10:08.690Z,98064.09
2023-03-24T23:12:37.966Z,98063.75
2023-03-24T23:15:10.166Z,98071.31
2023-03-24T23:17:38.827Z,98077.84
2023-03-24T23:20:13.700Z,98082.13
2023-03-24T23:22:43.252Z,98085.03
2023-03-24T23:25:13.555Z,98087.06
2023-03-24T23:27:43.098Z,98101.16
2023-03-24T23:30:16.160Z,98081.84
2023-03-24T23:32:47.186Z,98083.22
2023-03-24T23:35:17.238Z,98083.22
2023-03-24T23:37:46.638Z,98088.34
2023-03-24T23:40:16.255Z,98087.53
2023-03-24T23:42:46.596Z,98076.41
2023-03-24T23:45:18.799Z,98075.06
2023-03-24T23:47:49.647Z,98068.00
2023-03-24T23:50:19.382Z,98047.38
2023-03-24T23:52:48.114Z,98049.38
2023-03-24T23:55:18.713Z,98071.13
2023-03-24T23:57:49.291Z,98085.38
